createdAt,value
2023-05-07T00:01:28.883Z,22.9
2023-05-07T00:11:37.259Z,22.9
2023-05-07T00:21:42.896Z,22.9
2023-05-07T00:31:48.978Z,22.8
2023-05-07T00:41:54.975Z,22.8
2023-05-07T00:52:01.025Z,22.8
2023-05-07T01:02:07.086Z,22.8
2023-05-07T01:12:13.134Z,22.8
2023-05-07T01:22:21.062Z,22.8
2023-05-07T01:32:27.126Z,22.8
2023-05-07T01:42:33.147Z,22.7
2023-05-07T01:52:39.229Z,22.7
2023-05-07T02:02:45.348Z,22.7
2023-05-07T02:22:57.361Z,22.7
2023-05-07T02:33:03.475Z,22.7
2023-05-07T02:43:09.489Z,22.7
2023-05-07T02:53:15.499Z,22.7
2023-05-07T03:03:21.545Z,22.6
2023-05-07T03:13:27.651Z,22.6
2023-05-07T03:23:35.505Z,22.6
2023-05-07T03:33:41.581Z,22.6
2023-05-07T03:43:49.500Z,22.6
2023-05-07T04:04:01.724Z,22.5
2023-05-07T04:14:07.655Z,22.5
2023-05-07T04:34:21.606Z,22.5
2023-05-07T04:44:27.662Z,22.5
2023-05-07T05:04:39.782Z,22.4
2023-05-07T05:34:58.138Z,22.4
2023-05-07T05:45:03.970Z,22.4
2023-05-07T05:55:10.006Z,22.4
2023-05-07T06:05:16.228Z,22.4
2023-05-07T06:15:22.120Z,22.4
2023-05-07T06:25:28.155Z,22.4
2023-05-07T06:35:34.187Z,22.4
2023-05-07T06:45:40.264Z,22.3
2023-05-07T06:55:46.313Z,22.3
2023-05-07T07:26:04.460Z,22.3
2023-05-07T07:36:10.520Z,22.4
2023-05-07T07:46:18.453Z,22.4
2023-05-07T07:56:26.391Z,22.4
2023-05-07T08:16:42.277Z,22.4
2023-05-07T08:26:48.325Z,22.4
2023-05-07T08:36:54.337Z,22.4
2023-05-07T08:47:00.378Z,22.5
2023-05-07T08:57:06.429Z,22.5
2023-05-07T09:07:12.472Z,22.5
2023-05-07T09:17:20.473Z,22.6
2023-05-07T09:27:28.346Z,22.6
2023-05-07T09:37:36.290Z,22.6
2023-05-07T09:47:44.275Z,22.6
2023-05-07T09:57:50.276Z,22.6
2023-05-07T10:07:58.211Z,22.7
2023-05-07T10:18:04.437Z,22.7
2023-05-07T10:28:10.281Z,22.8
2023-05-07T10:38:16.335Z,22.8
2023-05-07T10:48:30.109Z,22.9
2023-05-07T10:58:32.797Z,22.9
2023-05-07T11:08:36.379Z,22.9
2023-05-07T11:28:50.325Z,23
2023-05-07T11:38:56.382Z,23
2023-05-07T11:49:02.437Z,23
2023-05-07T11:59:10.360Z,23
2023-05-07T12:09:18.315Z,23
2023-05-07T12:19:26.252Z,23
2023-05-07T12:29:34.185Z,23
2023-05-07T12:39:40.370Z,23
2023-05-07T12:49:46.273Z,23
2023-05-07T13:09:58.349Z,23
2023-05-07T13:20:04.425Z,23
2023-05-07T13:30:12.356Z,23
2023-05-07T13:40:20.284Z,23
2023-05-07T13:50:28.240Z,23
2023-05-07T14:00:36.153Z,23
2023-05-07T14:10:44.065Z,23
2023-05-07T14:20:50.131Z,23
2023-05-07T14:30:56.233Z,23
2023-05-07T14:41:04.106Z,23
2023-05-07T14:51:10.145Z,22.9
2023-05-07T15:01:16.245Z,22.9
2023-05-07T15:11:22.238Z,22.9
2023-05-07T15:21:28.296Z,22.9
2023-05-07T15:41:42.274Z,22.9
2023-05-07T15:51:50.206Z,22.9
2023-05-07T16:01:58.151Z,22.9
2023-05-07T16:12:06.102Z,22.9
2023-05-07T16:22:16.126Z,22.8
2023-05-07T16:32:21.962Z,22.8
2023-05-07T16:42:29.891Z,22.8
2023-05-07T16:52:37.873Z,22.8
2023-05-07T17:02:43.928Z,22.8
2023-05-07T17:12:49.980Z,22.8
2023-05-07T17:22:57.885Z,22.8
2023-05-07T17:33:16.865Z,22.8
2023-05-07T17:43:09.962Z,22.8
2023-05-07T17:53:16.012Z,22.8
2023-05-07T18:03:22.113Z,22.8
2023-05-07T18:13:29.990Z,22.8
2023-05-07T18:23:36.027Z,22.8
2023-05-07T18:33:43.939Z,22.8
2023-05-07T18:43:49.990Z,22.8
2023-05-07T18:53:56.036Z,22.8
2023-05-07T19:04:02.142Z,22.8
2023-05-07T19:14:10.026Z,22.8
2023-05-07T19:24:17.942Z,22.8
2023-05-07T19:34:23.984Z,22.7
2023-05-07T19:44:30.050Z,22.7
2023-05-07T19:54:37.985Z,22.7
2023-05-07T20:04:45.929Z,22.7
2023-05-07T20:14:53.866Z,22.7
2023-05-07T20:25:01.784Z,22.7
2023-05-07T20:45:17.657Z,22.7
2023-05-07T20:55:25.609Z,22.7
2023-05-07T21:05:33.538Z,22.7
2023-05-07T21:15:39.565Z,22.7
2023-05-07T21:25:47.513Z,22.7
2023-05-07T21:35:53.576Z,22.6
2023-05-07T21:45:59.592Z,22.6
2023-05-07T21:56:07.539Z,22.6
2023-05-07T22:06:13.580Z,22.6
2023-05-07T22:16:21.520Z,22.6
2023-05-07T22:36:33.619Z,22.6
2023-05-07T22:46:41.517Z,22.6
2023-05-07T22:56:47.581Z,22.6
2023-05-07T23:06:53.639Z,22.6
2023-05-07T23:17:01.560Z,22.5
2023-05-07T23:27:07.612Z,22.5
2023-05-07T23:37:13.670Z,22.5
2023-05-07T23:47:21.715Z,22.5
2023-05-07T23:57:27.628Z,22.5
